Time;durP1;ratioP1;P1;durP2;ratioP2;P2;SDS_P1;SDS_P2;PMS_P1;PMS_P2;Temp;Humidity;BMP_temperature;BMP_pressure;BME280_temperature;BME280_humidity;BME280_pressure;Samples;Min_cycle;Max_cycle;Signal;HPM_P1;HPM_P2
2021/01/11 00:02:00;;;;;;;23.03;11.20;;;-5.20;99.90;;;;;;5044807;28;20423;-76
2021/01/11 00:04:26;;;;;;;24.20;12.23;;;-5.20;99.90;;;;;;5063911;28;20216;-76
2021/01/11 00:06:52;;;;;;;24.43;12.90;;;-5.20;99.90;;;;;;5061478;28;20489;-76
2021/01/11 00:09:17;;;;;;;21.17;10.77;;;-5.20;99.90;;;;;;5046782;28;20177;-76
2021/01/11 00:11:43;;;;;;;20.80;11.30;;;-5.20;99.90;;;;;;5060584;28;20181;-76
2021/01/11 00:14:09;;;;;;;20.73;12.07;;;-5.20;99.90;;;;;;5063691;28;20193;-76
2021/01/11 00:16:34;;;;;;;21.10;11.60;;;-5.20;99.90;;;;;;5062703;28;20201;-76
2021/01/11 00:19:00;;;;;;;21.20;11.70;;;-5.30;99.90;;;;;;5062547;28;20576;-76
2021/01/11 00:21:26;;;;;;;20.57;10.60;;;-5.30;99.90;;;;;;5064034;28;20181;-76
2021/01/11 00:23:51;;;;;;;22.97;12.40;;;-5.30;99.90;;;;;;5061183;28;20193;-76
2021/01/11 00:26:17;;;;;;;21.13;11.07;;;-5.30;99.90;;;;;;5064832;28;20235;-76
2021/01/11 00:28:43;;;;;;;29.23;15.03;;;-5.30;99.90;;;;;;5061225;28;20178;-78
2021/01/11 00:31:09;;;;;;;29.90;13.67;;;-5.30;99.90;;;;;;5063569;28;20671;-76
2021/01/11 00:33:35;;;;;;;25.57;12.73;;;-5.30;99.90;;;;;;5044016;28;20463;-77
2021/01/11 00:36:01;;;;;;;25.03;12.27;;;-5.30;99.90;;;;;;5062335;28;20519;-76
2021/01/11 00:38:27;;;;;;;23.07;12.90;;;-5.40;99.90;;;;;;5063173;28;20427;-76
2021/01/11 00:40:53;;;;;;;23.23;12.07;;;-5.40;99.90;;;;;;5061080;28;20667;-76
2021/01/11 00:43:18;;;;;;;22.50;11.60;;;-5.40;99.90;;;;;;5064000;28;20173;-76
2021/01/11 00:45:44;;;;;;;21.40;11.93;;;-5.40;99.90;;;;;;5061088;28;20288;-76
2021/01/11 00:48:10;;;;;;;22.73;12.17;;;-5.30;99.90;;;;;;5063144;28;20581;-77
2021/01/11 00:50:35;;;;;;;19.77;12.03;;;-5.40;99.90;;;;;;5043136;28;20172;-76
2021/01/11 00:53:01;;;;;;;20.57;11.13;;;-5.40;99.90;;;;;;5061689;28;20428;-77
2021/01/11 00:55:26;;;;;;;19.50;10.83;;;-5.40;99.90;;;;;;5062949;28;20224;-76
2021/01/11 00:57:52;;;;;;;20.87;11.17;;;-5.50;99.90;;;;;;5042791;28;20178;-76
2021/01/11 01:00:19;;;;;;;17.53;10.70;;;-5.50;99.90;;;;;;5046129;28;20677;-76
2021/01/11 01:02:45;;;;;;;26.90;13.20;;;-5.50;99.90;;;;;;5060005;28;20174;-76
2021/01/11 01:05:11;;;;;;;20.97;11.40;;;-5.50;99.90;;;;;;5063046;28;20469;-76
2021/01/11 01:07:41;;;;;;;20.83;12.57;;;-5.60;99.90;;;;;;5061256;28;20230;-76
2021/01/11 01:10:08;;;;;;;21.53;11.93;;;-5.60;99.90;;;;;;5044425;28;20442;-77
2021/01/11 01:12:33;;;;;;;32.10;13.30;;;-5.60;99.90;;;;;;5061435;28;20498;-76
2021/01/11 01:14:59;;;;;;;27.70;12.57;;;-5.60;99.90;;;;;;5061168;28;20509;-76
2021/01/11 01:17:25;;;;;;;27.40;13.23;;;-5.60;99.90;;;;;;5062787;28;20219;-76
2021/01/11 01:19:50;;;;;;;19.40;11.40;;;-5.60;99.90;;;;;;5060019;28;20173;-76
2021/01/11 01:22:16;;;;;;;20.97;12.23;;;-5.60;99.90;;;;;;5055700;28;20236;-76
2021/01/11 01:24:41;;;;;;;23.73;12.30;;;-5.60;99.90;;;;;;5062429;28;20846;-76
2021/01/11 01:27:07;;;;;;;23.27;11.40;;;-5.60;99.90;;;;;;5061222;28;20181;-76
2021/01/11 01:29:32;;;;;;;23.10;12.40;;;-5.60;99.90;;;;;;5061320;28;20194;-76
2021/01/11 01:31:58;;;;;;;20.17;11.00;;;-5.60;99.90;;;;;;5061992;28;20574;-76
2021/01/11 01:34:24;;;;;;;22.07;11.90;;;-5.60;99.90;;;;;;5059960;28;20570;-76
2021/01/11 01:36:49;;;;;;;22.67;12.03;;;-5.70;99.90;;;;;;5063136;28;20203;-76
2021/01/11 01:39:15;;;;;;;23.97;13.00;;;-5.70;99.90;;;;;;5059683;28;20189;-76
2021/01/11 01:41:40;;;;;;;27.20;13.40;;;-5.70;99.90;;;;;;5044294;28;20192;-76
2021/01/11 01:44:06;;;;;;;23.33;12.40;;;-5.70;99.90;;;;;;5042930;28;20205;-77
2021/01/11 01:46:32;;;;;;;22.43;12.33;;;-5.70;99.90;;;;;;5060817;28;20201;-76
2021/01/11 01:48:59;;;;;;;24.30;13.13;;;-5.70;99.90;;;;;;5061966;28;20173;-76
2021/01/11 01:51:25;;;;;;;26.80;13.57;;;-5.70;99.90;;;;;;5060024;28;20444;-77
2021/01/11 01:53:51;;;;;;;30.70;12.20;;;-5.80;99.90;;;;;;5044349;28;20430;-76
2021/01/11 01:56:18;;;;;;;29.20;13.23;;;-5.70;99.90;;;;;;5059518;28;20452;-77
2021/01/11 01:58:44;;;;;;;27.00;12.90;;;-5.80;99.90;;;;;;5062297;28;20609;-77
2021/01/11 02:01:10;;;;;;;25.70;11.60;;;-5.80;99.90;;;;;;5060153;28;20441;-76
2021/01/11 02:03:35;;;;;;;21.50;10.83;;;-5.80;99.90;;;;;;5060911;28;20464;-76
2021/01/11 02:06:01;;;;;;;22.87;12.73;;;-5.90;99.90;;;;;;5061282;28;20239;-77
2021/01/11 02:08:35;;;;;;;26.17;12.50;;;-5.90;99.90;;;;;;5059952;28;20178;-75
2021/01/11 02:11:30;;;;;;;25.87;12.50;;;-5.90;99.90;;;;;;5061338;28;20179;-76
2021/01/11 02:14:23;;;;;;;20.77;11.10;;;-5.90;99.90;;;;;;5038726;28;20432;-76
2021/01/11 02:17:04;;;;;;;24.67;11.07;;;-6.00;99.90;;;;;;5055758;28;20510;-77
2021/01/11 02:20:08;;;;;;;19.43;10.90;;;-6.00;99.90;;;;;;5058130;28;20792;-77
2021/01/11 02:23:21;;;;;;;21.80;12.00;;;-6.00;99.90;;;;;;5044532;28;20767;-76
2021/01/11 02:26:15;;;;;;;23.70;10.70;;;-6.10;99.90;;;;;;4997620;28;20503;-77
2021/01/11 02:29:10;;;;;;;28.37;11.80;;;-6.10;99.90;;;;;;5061185;28;20445;-76
2021/01/11 02:31:37;;;;;;;21.43;10.33;;;-6.10;99.90;;;;;;5059782;28;20888;-76
2021/01/11 02:34:04;;;;;;;21.40;10.47;;;-6.10;99.90;;;;;;5060555;28;20409;-76
2021/01/11 02:36:30;;;;;;;24.67;11.83;;;-6.10;99.90;;;;;;5063266;28;20428;-76
2021/01/11 02:38:55;;;;;;;21.30;12.00;;;-6.10;99.90;;;;;;5065785;28;20411;-77
2021/01/11 02:41:21;;;;;;;20.83;10.60;;;-6.10;99.90;;;;;;5063009;28;20360;-77
2021/01/11 02:43:46;;;;;;;20.57;11.70;;;-6.10;99.90;;;;;;5066329;28;20219;-77
2021/01/11 02:46:12;;;;;;;23.93;12.20;;;-6.10;99.90;;;;;;5063319;28;20201;-77
2021/01/11 02:48:48;;;;;;;24.47;11.20;;;-6.10;99.90;;;;;;5065127;28;20173;-77
2021/01/11 02:51:26;;;;;;;25.33;11.67;;;-6.10;99.90;;;;;;5063179;28;20275;-77
2021/01/11 02:54:18;;;;;;;22.60;11.10;;;-6.20;99.90;;;;;;5059473;28;20471;-77
2021/01/11 02:56:55;;;;;;;17.97;9.90;;;-6.20;99.90;;;;;;5063176;28;20475;-77
2021/01/11 02:59:35;;;;;;;22.83;11.60;;;-6.20;99.90;;;;;;5059226;28;20481;-77
2021/01/11 03:02:08;;;;;;;20.30;10.93;;;-6.30;99.90;;;;;;5064701;28;20399;-77
2021/01/11 03:04:36;;;;;;;21.40;10.53;;;-6.30;99.90;;;;;;5064108;28;20994;-77
2021/01/11 03:07:04;;;;;;;17.07;10.83;;;-6.30;99.90;;;;;;5064657;28;20438;-77
2021/01/11 03:09:30;;;;;;;23.63;11.77;;;-6.30;99.90;;;;;;5045307;28;20452;-77
2021/01/11 03:11:57;;;;;;;23.70;13.57;;;-6.30;99.90;;;;;;5065434;28;20509;-77
2021/01/11 03:14:23;;;;;;;24.93;11.20;;;-6.40;99.90;;;;;;5062251;28;20425;-78
2021/01/11 03:16:49;;;;;;;29.37;12.50;;;-6.40;99.90;;;;;;5065866;28;20431;-77
2021/01/11 03:19:15;;;;;;;26.80;12.40;;;-6.40;99.90;;;;;;5062410;28;20420;-77
2021/01/11 03:21:40;;;;;;;22.20;11.63;;;-6.40;99.90;;;;;;5064820;28;20415;-78
2021/01/11 03:24:07;;;;;;;21.20;11.87;;;-6.40;99.90;;;;;;5063358;28;20197;-77
2021/01/11 03:26:34;;;;;;;23.23;11.23;;;-6.30;99.90;;;;;;5063530;28;20209;-76
2021/01/11 03:29:00;;;;;;;15.33;9.80;;;-6.30;99.90;;;;;;5064546;28;20427;-77
2021/01/11 03:31:25;;;;;;;19.10;11.20;;;-6.40;99.90;;;;;;5062601;28;20477;-77
2021/01/11 03:33:51;;;;;;;21.07;11.57;;;-6.40;99.90;;;;;;5065615;28;20520;-77
2021/01/11 03:36:17;;;;;;;29.73;12.27;;;-6.40;99.90;;;;;;5062094;28;20181;-77
2021/01/11 03:38:43;;;;;;;26.10;12.10;;;-6.40;99.90;;;;;;5064758;28;20188;-77
2021/01/11 03:41:09;;;;;;;21.73;11.93;;;-6.50;99.90;;;;;;5062908;28;20505;-77
2021/01/11 03:43:39;;;;;;;20.97;11.07;;;-6.40;99.90;;;;;;5063250;28;20488;-77
2021/01/11 03:46:06;;;;;;;27.80;13.47;;;-6.50;99.90;;;;;;5044938;28;20886;-77
2021/01/11 03:48:32;;;;;;;20.93;11.90;;;-6.50;99.90;;;;;;5062207;28;20473;-77
2021/01/11 03:50:58;;;;;;;23.13;10.63;;;-6.50;99.90;;;;;;5064264;28;20405;-77
2021/01/11 03:53:23;;;;;;;26.33;12.60;;;-6.50;99.90;;;;;;5061401;28;20432;-76
2021/01/11 03:55:49;;;;;;;19.40;10.40;;;-6.50;99.90;;;;;;5065054;28;20441;-77
2021/01/11 03:58:14;;;;;;;18.50;9.80;;;-6.50;99.90;;;;;;5062115;28;20268;-77
2021/01/11 04:00:40;;;;;;;21.33;10.87;;;-6.50;99.90;;;;;;5045970;28;20283;-77
2021/01/11 04:03:05;;;;;;;20.03;10.67;;;-6.50;99.90;;;;;;5063237;28;20192;-77
2021/01/11 04:05:31;;;;;;;18.70;10.57;;;-6.50;99.90;;;;;;5044554;28;20251;-77
2021/01/11 04:07:57;;;;;;;20.50;11.57;;;-6.50;99.90;;;;;;5064306;28;20543;-77
2021/01/11 04:10:23;;;;;;;23.60;10.10;;;-6.50;99.90;;;;;;5061342;28;20430;-77
2021/01/11 04:12:49;;;;;;;14.33;9.03;;;-6.50;99.90;;;;;;5064608;28;20418;-78
2021/01/11 04:15:15;;;;;;;23.47;10.73;;;-6.60;99.90;;;;;;5061469;28;20478;-77
2021/01/11 04:17:41;;;;;;;27.67;11.03;;;-6.60;99.90;;;;;;5063643;28;20664;-77
2021/01/11 04:20:07;;;;;;;20.70;11.30;;;-6.60;99.90;;;;;;5062508;28;20434;-75
2021/01/11 04:22:34;;;;;;;17.20;9.57;;;-6.60;99.90;;;;;;5062268;28;20185;-77
2021/01/11 04:24:59;;;;;;;15.93;9.20;;;-6.60;99.90;;;;;;5045346;28;20504;-77
2021/01/11 04:27:25;;;;;;;17.20;9.77;;;-6.60;99.90;;;;;;5061691;28;20793;-77
2021/01/11 04:29:50;;;;;;;17.10;9.70;;;-6.60;99.90;;;;;;5064510;28;20173;-77
2021/01/11 04:32:16;;;;;;;18.70;10.87;;;-6.60;99.90;;;;;;5043068;28;20177;-76
2021/01/11 04:34:41;;;;;;;19.13;10.23;;;-6.60;99.90;;;;;;5063490;28;20285;-77
2021/01/11 04:37:07;;;;;;;22.93;10.67;;;-6.70;99.90;;;;;;5044349;28;20653;-77
2021/01/11 04:39:34;;;;;;;24.37;10.00;;;-6.70;99.90;;;;;;5061977;28;20213;-75
2021/01/11 04:42:01;;;;;;;24.20;10.57;;;-6.70;99.90;;;;;;5062995;28;20507;-77
2021/01/11 04:44:28;;;;;;;20.37;10.67;;;-6.70;99.90;;;;;;5061143;28;20436;-77
2021/01/11 04:46:54;;;;;;;20.20;11.00;;;-6.80;99.90;;;;;;5063820;28;20448;-75
2021/01/11 04:49:20;;;;;;;18.20;10.00;;;-6.70;99.90;;;;;;5042838;28;20394;-77
2021/01/11 04:51:46;;;;;;;22.47;9.93;;;-6.70;99.90;;;;;;5064189;28;20595;-77
2021/01/11 04:54:17;;;;;;;20.50;10.37;;;-6.80;99.90;;;;;;5059628;28;20225;-77
2021/01/11 04:56:46;;;;;;;18.60;9.03;;;-6.80;99.90;;;;;;5043421;28;20190;-77
2021/01/11 04:59:18;;;;;;;18.83;9.73;;;-6.90;99.90;;;;;;5063171;28;20482;-77
2021/01/11 05:01:43;;;;;;;23.23;9.80;;;-6.90;99.90;;;;;;5061088;28;20410;-77
2021/01/11 05:04:13;;;;;;;22.33;11.17;;;-6.90;99.90;;;;;;5062678;28;20444;-77
2021/01/11 05:06:44;;;;;;;18.60;10.30;;;-6.90;99.90;;;;;;5061054;28;20586;-76
2021/01/11 05:09:13;;;;;;;21.43;9.90;;;-6.90;99.90;;;;;;5044935;28;20403;-77
2021/01/11 05:11:38;;;;;;;22.20;10.53;;;-6.90;99.90;;;;;;5043359;28;20419;-77
2021/01/11 05:14:04;;;;;;;15.87;9.40;;;-6.90;99.90;;;;;;5062261;28;20468;-77
2021/01/11 05:16:30;;;;;;;22.13;10.43;;;-6.90;99.90;;;;;;5063074;28;20560;-76
2021/01/11 05:19:01;;;;;;;14.67;9.20;;;-6.90;99.90;;;;;;5042730;28;20188;-76
2021/01/11 05:21:44;;;;;;;18.30;8.63;;;-7.00;99.90;;;;;;5062714;28;20274;-76
2021/01/11 05:24:33;;;;;;;19.07;9.20;;;-7.00;99.90;;;;;;5062217;28;20538;-76
2021/01/11 05:27:04;;;;;;;21.03;9.63;;;-6.90;99.90;;;;;;5058268;28;20493;-76
2021/01/11 05:29:30;;;;;;;21.40;11.90;;;-6.90;99.90;;;;;;5062010;28;20799;-76
2021/01/11 05:32:00;;;;;;;19.80;10.47;;;-6.90;99.90;;;;;;5060407;28;20432;-76
2021/01/11 05:35:05;;;;;;;19.90;9.77;;;-7.00;99.90;;;;;;5044627;28;20450;-76
2021/01/11 05:37:33;;;;;;;23.00;10.57;;;-6.90;99.90;;;;;;4977207;28;20402;-76
2021/01/11 05:40:20;;;;;;;31.17;12.33;;;-7.00;99.90;;;;;;4980995;28;20405;-76
2021/01/11 05:42:56;;;;;;;23.23;10.60;;;-7.00;99.90;;;;;;5032143;28;20427;-77
2021/01/11 05:45:28;;;;;;;18.67;9.20;;;-7.00;99.90;;;;;;5056052;28;20491;-76
2021/01/11 05:48:06;;;;;;;19.40;9.07;;;-7.00;99.90;;;;;;5056421;28;20455;-76
2021/01/11 05:50:45;;;;;;;20.07;10.53;;;-7.00;99.90;;;;;;5061223;28;20737;-77
2021/01/11 05:53:14;;;;;;;19.83;9.57;;;-7.00;99.90;;;;;;5061712;28;20857;-76
2021/01/11 05:55:39;;;;;;;21.93;10.53;;;-7.00;99.90;;;;;;5060384;28;20460;-76
2021/01/11 05:58:05;;;;;;;19.53;11.40;;;-7.10;99.90;;;;;;5061345;28;20924;-76
2021/01/11 06:00:33;;;;;;;23.07;10.73;;;-7.10;99.90;;;;;;5061561;28;20191;-77
2021/01/11 06:03:00;;;;;;;22.23;10.30;;;-7.10;99.90;;;;;;5060070;28;20185;-76
2021/01/11 06:05:28;;;;;;;23.23;10.10;;;-7.10;99.90;;;;;;5057620;28;20730;-76
2021/01/11 06:07:54;;;;;;;18.77;10.43;;;-7.10;99.90;;;;;;5043545;28;20427;-77
2021/01/11 06:10:21;;;;;;;23.47;10.10;;;-7.10;99.90;;;;;;5058528;28;20390;-76
2021/01/11 06:12:48;;;;;;;20.63;10.43;;;-7.10;99.90;;;;;;5057764;28;20401;-77
2021/01/11 06:15:16;;;;;;;21.97;10.10;;;-7.10;99.90;;;;;;5059432;28;20432;-77
2021/01/11 06:17:43;;;;;;;18.00;9.67;;;-7.10;99.90;;;;;;5061580;28;20395;-77
2021/01/11 06:20:16;;;;;;;16.63;9.37;;;-7.10;99.90;;;;;;5042194;28;20778;-76
2021/01/11 06:22:45;;;;;;;22.43;11.07;;;-7.10;99.90;;;;;;5061564;28;20909;-76
2021/01/11 06:25:20;;;;;;;20.60;9.97;;;-7.10;99.90;;;;;;5041825;28;20529;-76
2021/01/11 06:27:51;;;;;;;22.33;10.80;;;-7.10;99.90;;;;;;5061767;28;20393;-76
2021/01/11 06:30:35;;;;;;;22.07;11.17;;;-7.10;99.90;;;;;;5059020;28;20440;-76
2021/01/11 06:33:04;;;;;;;29.97;10.87;;;-7.20;99.90;;;;;;5057834;28;20925;-76
2021/01/11 06:35:30;;;;;;;22.60;10.47;;;-7.20;99.90;;;;;;5061095;28;20438;-76
2021/01/11 06:38:25;;;;;;;27.47;12.57;;;-7.20;99.90;;;;;;5041252;28;20409;-76
2021/01/11 06:41:03;;;;;;;16.70;10.07;;;-7.20;99.90;;;;;;5025853;28;20521;-76
2021/01/11 06:43:49;;;;;;;29.03;13.60;;;-7.20;99.90;;;;;;5056667;28;20790;-76
2021/01/11 06:46:30;;;;;;;18.90;10.77;;;-7.10;99.90;;;;;;5058363;28;20554;-76
2021/01/11 06:48:56;;;;;;;22.80;10.77;;;-7.10;99.90;;;;;;5055150;28;20410;-76
2021/01/11 06:51:39;;;;;;;20.87;11.90;;;-7.10;99.90;;;;;;5058662;28;20482;-77
2021/01/11 06:54:11;;;;;;;23.03;11.60;;;-7.10;99.90;;;;;;5058337;28;20462;-77
2021/01/11 06:56:39;;;;;;;22.53;10.37;;;-7.10;99.90;;;;;;5060159;28;20909;-74
2021/01/11 06:59:16;;;;;;;21.83;9.33;;;-7.20;99.90;;;;;;5060175;28;20444;-74
2021/01/11 07:01:42;;;;;;;27.40;11.93;;;-7.10;99.90;;;;;;5059158;28;20430;-73
2021/01/11 07:04:10;;;;;;;19.77;9.67;;;-7.00;99.90;;;;;;5060443;28;20494;-74
2021/01/11 07:06:40;;;;;;;22.37;10.53;;;-7.00;99.90;;;;;;5054212;28;20441;-74
2021/01/11 07:09:12;;;;;;;23.07;11.97;;;-7.00;99.90;;;;;;5063802;28;20423;-73
2021/01/11 07:11:45;;;;;;;21.83;12.27;;;-7.00;99.90;;;;;;5061346;28;20415;-74
2021/01/11 07:14:13;;;;;;;28.03;12.13;;;-6.90;99.90;;;;;;5060891;28;20483;-75
2021/01/11 07:16:46;;;;;;;22.97;10.83;;;-6.90;99.90;;;;;;5057424;28;20387;-74
2021/01/11 07:19:13;;;;;;;19.97;10.83;;;-6.90;99.90;;;;;;5041186;28;20413;-74
2021/01/11 07:21:40;;;;;;;15.10;9.80;;;-6.80;99.90;;;;;;5060946;28;20423;-73
2021/01/11 07:24:06;;;;;;;25.20;12.27;;;-6.90;99.90;;;;;;5063775;28;20455;-74
2021/01/11 07:26:34;;;;;;;23.53;10.73;;;-6.90;99.90;;;;;;5063812;28;20569;-73
2021/01/11 07:29:13;;;;;;;22.80;12.33;;;-6.90;99.90;;;;;;5045088;28;20818;-74
2021/01/11 07:31:44;;;;;;;19.60;10.23;;;-6.90;99.90;;;;;;5063004;28;20928;-74
2021/01/11 07:34:17;;;;;;;20.20;11.50;;;-6.80;99.90;;;;;;5063945;28;20455;-74
2021/01/11 07:36:44;;;;;;;28.93;12.30;;;-6.80;99.90;;;;;;5061522;28;20423;-74
2021/01/11 07:39:18;;;;;;;24.07;11.30;;;-6.80;99.90;;;;;;5063264;28;20431;-74
2021/01/11 07:41:51;;;;;;;23.00;11.10;;;-6.80;99.90;;;;;;5062131;28;20442;-74
2021/01/11 07:44:24;;;;;;;23.33;10.10;;;-6.80;99.90;;;;;;5064872;28;20500;-74
2021/01/11 07:47:02;;;;;;;22.77;11.90;;;-6.80;99.90;;;;;;5058016;28;20499;-74
2021/01/11 07:49:31;;;;;;;21.73;12.03;;;-6.80;99.90;;;;;;5059504;28;20394;-74
2021/01/11 07:52:03;;;;;;;25.17;11.30;;;-6.70;99.90;;;;;;5064497;28;20423;-74
2021/01/11 07:54:29;;;;;;;29.13;13.37;;;-6.60;99.90;;;;;;5062008;28;20475;-74
2021/01/11 07:56:55;;;;;;;24.47;12.77;;;-6.60;99.90;;;;;;5064930;28;20896;-74
2021/01/11 07:59:21;;;;;;;22.13;12.17;;;-6.50;99.90;;;;;;5061868;28;20177;-74
2021/01/11 08:01:48;;;;;;;26.87;12.43;;;-6.40;99.90;;;;;;5064410;28;20427;-74
2021/01/11 08:04:15;;;;;;;25.93;12.33;;;-6.30;99.90;;;;;;5061441;28;20477;-74
2021/01/11 08:06:55;;;;;;;24.13;13.47;;;-6.30;99.90;;;;;;5062961;28;21043;-73
2021/01/11 08:09:26;;;;;;;26.77;12.23;;;-6.20;99.90;;;;;;5057638;28;20616;-74
2021/01/11 08:12:17;;;;;;;23.47;12.33;;;-6.10;99.90;;;;;;5057639;28;20391;-74
2021/01/11 08:14:46;;;;;;;23.27;13.50;;;-6.00;99.90;;;;;;5063176;28;20425;-74
2021/01/11 08:17:13;;;;;;;21.10;11.13;;;-5.80;99.90;;;;;;5062135;28;20434;-74
2021/01/11 08:19:42;;;;;;;24.23;11.53;;;-5.70;99.90;;;;;;5063352;28;20891;-75
2021/01/11 08:22:09;;;;;;;25.83;13.27;;;-5.70;99.90;;;;;;5062477;28;20443;-74
2021/01/11 08:24:36;;;;;;;27.70;13.80;;;-5.60;99.90;;;;;;5062400;28;20464;-74
2021/01/11 08:27:04;;;;;;;30.47;14.10;;;-5.60;99.90;;;;;;5063044;28;20438;-74
2021/01/11 08:29:41;;;;;;;25.00;13.40;;;-5.40;99.90;;;;;;5061915;28;20395;-74
2021/01/11 08:32:16;;;;;;;28.93;14.73;;;-5.30;99.90;;;;;;5062205;28;20530;-74
2021/01/11 08:34:41;;;;;;;31.33;15.00;;;-5.10;99.90;;;;;;5044746;28;20826;-74
2021/01/11 08:37:26;;;;;;;27.03;13.60;;;-5.00;99.90;;;;;;5062453;28;20405;-74
2021/01/11 08:40:04;;;;;;;35.50;16.10;;;-4.90;99.90;;;;;;5057198;28;20189;-74
2021/01/11 08:42:30;;;;;;;28.27;16.80;;;-4.80;99.90;;;;;;5041629;28;20450;-74
2021/01/11 08:45:33;;;;;;;31.73;15.77;;;-4.60;99.90;;;;;;5063434;28;20418;-74
2021/01/11 08:48:04;;;;;;;34.93;15.83;;;-4.40;99.90;;;;;;5058997;28;20420;-75
2021/01/11 08:50:30;;;;;;;35.93;18.40;;;-4.20;99.90;;;;;;5062985;28;20887;-74
2021/01/11 08:52:56;;;;;;;35.90;16.20;;;-4.10;99.90;;;;;;5060564;28;20391;-74
2021/01/11 08:55:22;;;;;;;35.43;17.50;;;-4.00;99.90;;;;;;5063920;28;20443;-74
2021/01/11 08:58:01;;;;;;;39.80;18.20;;;-3.90;99.90;;;;;;5060187;28;20421;-74
2021/01/11 09:00:26;;;;;;;41.50;15.10;;;-3.70;99.90;;;;;;5058026;28;20184;-74
2021/01/11 09:02:52;;;;;;;31.00;15.30;;;-3.60;99.90;;;;;;5045649;28;20398;-74
2021/01/11 09:05:23;;;;;;;30.60;15.37;;;-3.50;99.90;;;;;;5038291;28;20243;-75
2021/01/11 09:07:50;;;;;;;27.63;15.10;;;-3.30;99.90;;;;;;5056346;28;20228;-74
2021/01/11 09:10:32;;;;;;;25.60;14.63;;;-3.20;99.90;;;;;;5063297;28;20403;-74
2021/01/11 09:13:18;;;;;;;27.90;14.07;;;-3.00;99.90;;;;;;5057848;28;20402;-74
2021/01/11 09:15:44;;;;;;;30.10;14.50;;;-2.70;99.90;;;;;;5060670;28;20391;-75
2021/01/11 09:18:12;;;;;;;26.00;13.47;;;-2.60;99.90;;;;;;5062427;28;20426;-74
2021/01/11 09:20:40;;;;;;;21.23;13.43;;;-2.00;99.90;;;;;;5043302;28;20487;-74
2021/01/11 09:23:06;;;;;;;26.03;12.07;;;-1.40;99.90;;;;;;5043487;28;20433;-75
2021/01/11 09:25:33;;;;;;;21.50;12.13;;;-0.60;99.90;;;;;;5062072;28;20641;-74
2021/01/11 09:28:01;;;;;;;18.30;10.93;;;0.20;99.90;;;;;;5060617;28;20920;-74
2021/01/11 09:30:28;;;;;;;26.70;14.57;;;0.60;99.90;;;;;;5044898;28;20442;-75
2021/01/11 09:32:54;;;;;;;19.10;12.53;;;1.20;99.90;;;;;;5059653;28;20397;-75
2021/01/11 09:35:19;;;;;;;17.90;11.80;;;1.40;99.90;;;;;;5063057;28;20417;-74
2021/01/11 09:37:45;;;;;;;22.47;11.63;;;1.60;99.90;;;;;;5059935;28;20643;-74
2021/01/11 09:40:11;;;;;;;20.23;12.03;;;1.80;99.90;;;;;;5044079;28;20194;-75
2021/01/11 09:42:36;;;;;;;19.87;12.20;;;1.60;99.90;;;;;;5060896;28;20678;-73
2021/01/11 09:45:04;;;;;;;16.63;11.40;;;2.00;99.90;;;;;;5060788;28;20460;-74
2021/01/11 09:47:29;;;;;;;18.13;11.07;;;2.30;99.90;;;;;;5062039;28;20256;-74
2021/01/11 09:49:55;;;;;;;21.70;12.13;;;2.20;99.90;;;;;;5059617;28;20858;-74
2021/01/11 09:52:20;;;;;;;19.87;11.50;;;2.40;99.90;;;;;;5062837;28;20268;-74
2021/01/11 09:54:46;;;;;;;17.80;11.60;;;2.60;99.90;;;;;;5041255;28;20304;-74
2021/01/11 09:57:12;;;;;;;19.47;11.40;;;2.90;99.90;;;;;;5044042;28;20468;-75
2021/01/11 09:59:38;;;;;;;21.70;12.73;;;3.10;99.90;;;;;;5060620;28;20177;-75
2021/01/11 10:02:03;;;;;;;24.07;13.37;;;3.10;99.90;;;;;;5063425;28;20180;-75
2021/01/11 10:04:29;;;;;;;17.47;11.43;;;3.10;99.90;;;;;;5059842;28;20833;-74
2021/01/11 10:06:56;;;;;;;22.30;11.43;;;3.00;99.90;;;;;;5062509;28;20204;-74
2021/01/11 10:09:24;;;;;;;23.57;13.47;;;3.10;99.90;;;;;;5059343;28;20178;-74
2021/01/11 10:11:52;;;;;;;18.00;11.53;;;3.30;99.90;;;;;;5055383;28;20402;-74
2021/01/11 10:14:17;;;;;;;20.43;12.70;;;3.40;99.90;;;;;;5062320;28;20426;-74
2021/01/11 10:16:44;;;;;;;17.30;11.50;;;3.50;99.90;;;;;;5059595;28;20437;-74
2021/01/11 10:19:30;;;;;;;19.47;12.63;;;3.10;99.90;;;;;;5061296;28;20177;-74
2021/01/11 10:21:56;;;;;;;19.10;12.17;;;3.30;99.90;;;;;;5040989;28;20798;-74
2021/01/11 10:24:23;;;;;;;21.63;13.57;;;3.00;99.90;;;;;;5062735;28;20441;-73
2021/01/11 10:26:50;;;;;;;15.70;10.80;;;3.10;99.90;;;;;;5054938;28;20558;-74
2021/01/11 10:29:17;;;;;;;18.07;10.20;;;2.90;99.90;;;;;;5061972;28;20403;-74
2021/01/11 10:31:44;;;;;;;19.30;11.10;;;3.10;99.90;;;;;;5059621;28;21176;-74
2021/01/11 10:34:10;;;;;;;24.10;13.57;;;3.10;99.90;;;;;;5061323;28;20414;-74
2021/01/11 10:36:41;;;;;;;22.40;11.87;;;3.00;99.90;;;;;;5060525;28;20426;-74
2021/01/11 10:39:08;;;;;;;19.10;10.73;;;3.20;99.90;;;;;;5060988;28;20838;-74
2021/01/11 10:41:33;;;;;;;21.03;11.50;;;3.20;99.90;;;;;;5060694;28;20425;-74
2021/01/11 10:43:59;;;;;;;32.43;12.43;;;3.20;99.90;;;;;;5059515;28;20948;-74
2021/01/11 10:46:25;;;;;;;19.00;11.50;;;3.20;99.90;;;;;;5061816;28;20262;-74
2021/01/11 10:48:51;;;;;;;15.63;10.47;;;3.50;99.90;;;;;;5059004;28;20775;-75
2021/01/11 10:51:16;;;;;;;15.40;10.70;;;3.50;99.90;;;;;;5062482;28;20255;-74
2021/01/11 10:53:43;;;;;;;16.93;11.20;;;3.40;99.90;;;;;;5058994;28;20704;-74
2021/01/11 10:56:10;;;;;;;18.00;10.80;;;3.40;99.90;;;;;;5061963;28;20212;-74
2021/01/11 10:58:37;;;;;;;16.57;10.17;;;3.40;99.90;;;;;;5063970;28;20597;-74
2021/01/11 11:01:08;;;;;;;16.43;10.30;;;3.40;99.90;;;;;;5064053;28;20432;-74
2021/01/11 11:03:34;;;;;;;19.93;11.50;;;3.30;99.90;;;;;;5064057;28;20487;-74
2021/01/11 11:06:00;;;;;;;17.17;9.70;;;3.30;99.90;;;;;;5063413;28;20542;-74
2021/01/11 11:08:26;;;;;;;18.73;9.83;;;3.10;99.90;;;;;;5046843;28;20253;-74
2021/01/11 11:10:51;;;;;;;17.83;10.00;;;2.80;99.90;;;;;;5066118;28;20172;-74
2021/01/11 11:13:17;;;;;;;15.50;9.87;;;2.50;99.90;;;;;;5062294;28;20188;-74
2021/01/11 11:15:46;;;;;;;17.37;10.70;;;2.30;99.90;;;;;;5065081;28;20194;-74
2021/01/11 11:18:13;;;;;;;18.23;10.43;;;2.20;99.90;;;;;;5063081;28;20184;-74
2021/01/11 11:20:39;;;;;;;16.87;9.57;;;1.90;99.90;;;;;;5064286;28;20451;-74
2021/01/11 11:23:05;;;;;;;15.83;9.33;;;2.30;99.90;;;;;;5047582;28;20897;-74
2021/01/11 11:25:31;;;;;;;16.47;10.50;;;2.50;99.90;;;;;;5064196;28;20440;-75
2021/01/11 11:27:56;;;;;;;17.67;10.30;;;2.60;99.90;;;;;;5062561;28;20494;-74
2021/01/11 11:30:22;;;;;;;20.20;10.83;;;2.40;99.90;;;;;;5065691;28;20177;-74
2021/01/11 11:32:49;;;;;;;20.63;11.37;;;2.30;99.90;;;;;;5062399;28;20549;-74
2021/01/11 11:35:16;;;;;;;18.10;10.27;;;2.30;99.90;;;;;;5064976;28;20505;-74
2021/01/11 11:37:42;;;;;;;20.13;11.23;;;2.50;99.90;;;;;;5062803;28;20398;-75
2021/01/11 11:40:10;;;;;;;24.63;13.10;;;2.60;99.90;;;;;;5064015;28;20428;-74
2021/01/11 11:42:36;;;;;;;27.13;14.53;;;2.60;99.90;;;;;;5063424;28;20751;-74
2021/01/11 11:45:10;;;;;;;20.30;12.20;;;2.50;99.90;;;;;;5062949;28;20442;-74
2021/01/11 11:47:37;;;;;;;19.33;12.17;;;2.60;99.90;;;;;;5063307;28;20432;-74
2021/01/11 11:50:08;;;;;;;15.07;10.10;;;2.70;99.90;;;;;;5063089;28;20432;-74
2021/01/11 11:52:34;;;;;;;17.70;10.77;;;2.70;99.90;;;;;;5063454;28;20777;-74
2021/01/11 11:55:01;;;;;;;28.23;15.17;;;2.60;99.90;;;;;;5062398;28;20448;-74
2021/01/11 11:57:26;;;;;;;47.00;13.80;;;2.60;99.90;;;;;;5064714;28;20421;-74
2021/01/11 11:59:52;;;;;;;29.40;15.17;;;2.60;99.90;;;;;;5061711;28;20470;-74
2021/01/11 12:02:17;;;;;;;24.77;13.47;;;2.50;99.90;;;;;;5065022;28;20179;-73
2021/01/11 12:04:43;;;;;;;23.70;12.80;;;2.20;99.90;;;;;;5061754;28;20206;-73
2021/01/11 12:07:16;;;;;;;26.20;13.03;;;2.30;99.90;;;;;;5063050;28;20685;-74
2021/01/11 12:09:42;;;;;;;29.30;13.60;;;2.30;99.90;;;;;;5061765;28;20180;-73
2021/01/11 12:12:07;;;;;;;22.77;12.33;;;2.40;99.90;;;;;;5063318;28;20491;-74
2021/01/11 12:14:34;;;;;;;25.67;12.10;;;2.20;99.90;;;;;;5062949;28;20194;-74
2021/01/11 12:17:01;;;;;;;26.93;13.70;;;2.10;99.90;;;;;;5044241;28;20399;-74
2021/01/11 12:19:26;;;;;;;26.73;13.63;;;2.30;99.90;;;;;;5064126;28;20742;-74
2021/01/11 12:21:52;;;;;;;28.10;13.70;;;2.30;99.90;;;;;;5061256;28;20439;-74
2021/01/11 12:24:17;;;;;;;21.80;11.70;;;2.10;99.90;;;;;;5064388;28;20878;-74
2021/01/11 12:26:48;;;;;;;21.03;12.27;;;2.10;99.90;;;;;;5061627;28;20230;-74
2021/01/11 12:29:15;;;;;;;19.47;11.53;;;1.90;99.90;;;;;;5064206;28;20187;-74
2021/01/11 12:31:41;;;;;;;18.03;12.03;;;2.00;99.90;;;;;;5061908;28;20926;-74
2021/01/11 12:34:07;;;;;;;25.13;13.00;;;2.00;99.90;;;;;;5062527;28;20471;-74
2021/01/11 12:36:35;;;;;;;24.93;11.97;;;2.00;99.90;;;;;;5064248;28;20184;-73
2021/01/11 12:39:03;;;;;;;22.90;11.13;;;2.00;99.90;;;;;;5063199;28;20768;-73
2021/01/11 12:41:29;;;;;;;20.90;11.70;;;2.20;99.90;;;;;;5061418;28;20400;-74